Weather reports worldwide

Advertisment
Malaga,Cmt, Spain (8481): temperature & dewpoint: 18.06.2018 15:00:00 - 24.06.2018 15:00:00 (CEST)Malaga,Cmt, Spain (8481): wind speed & gusts: 18.06.2018 15:00:00 - 24.06.2018 15:00:00 (CEST)Malaga,Cmt, Spain (8481): wind direction: 18.06.2018 15:00:00 - 24.06.2018 15:00:00 (CEST)Malaga,Cmt, Spain (8481): reduced air pressure: 18.06.2018 15:00:00 - 24.06.2018 15:00:00 (CEST)Malaga,Cmt, Spain (8481): precipitation: 18.06.2018 15:00:00 - 24.06.2018 15:00:00 (CEST)
Date & Time tt [°C] td [°C] ff [km/h] ff [kn] fx [km/h] fx [kn] dd ppp [hPa] rr [mm]
24.06.2018 15:00:00 - - - - - - - - -
24.06.2018 14:00:00 27,9 18,3 11 6 20 11 SE 1015,4 -
24.06.2018 13:00:00 27,7 18,7 12 6 20 11 SE 1015,8 0,0
24.06.2018 12:00:00 27,0 18,0 12 6 21 11 ESE 1015,8 0,0
24.06.2018 11:00:00 26,7 17,8 11 6 21 12 SE 1015,8 0,0
24.06.2018 10:00:00 25,1 17,8 11 6 19 11 E 1015,5 0,0
24.06.2018 09:00:00 23,4 16,9 7 4 16 8 E 1014,9 0,0
24.06.2018 08:00:00 20,7 15,3 6 3 9 5 ENE 1014,6 -
24.06.2018 07:00:00 19,8 14,4 2 1 9 5 WNW 1014,4 0,0
24.06.2018 06:00:00 21,2 15,7 0 0 6 3 SE 1014,0 0,0
24.06.2018 05:00:00 20,6 15,2 0 0 6 4 E 1014,2 0,0
24.06.2018 04:00:00 20,9 14,8 5 3 8 5 WSW 1014,7 0,0
24.06.2018 03:00:00 21,8 15,4 5 3 9 5 WSW 1015,3 0,0
24.06.2018 02:00:00 21,8 15,6 5 3 9 5 WSW 1015,8 -
24.06.2018 01:00:00 23,0 15,8 4 2 7 4 WNW 1015,9 0,0
24.06.2018 00:00:00 23,3 16,1 4 2 9 5 ESE 1016,3 0,0
23.06.2018 23:00:00 23,9 15,4 5 3 10 5 ESE 1015,6 0,0
23.06.2018 22:00:00 24,9 14,6 6 3 12 6 ESE 1014,9 0,0
23.06.2018 21:00:00 26,4 15,2 6 3 16 8 SSE 1014,5 0,0
23.06.2018 20:00:00 27,3 15,6 9 5 16 8 S 1013,9 -
23.06.2018 19:00:00 27,4 14,7 10 5 18 10 SE 1014,2 0,0
23.06.2018 18:00:00 28,3 15,3 10 5 19 11 SSE 1014,4 0,0
23.06.2018 17:00:00 28,4 14,6 11 6 22 12 SE 1014,9 0,0
23.06.2018 16:00:00 29,0 15,5 11 6 23 12 SSE 1015,4 0,0
23.06.2018 15:00:00 29,0 16,2 10 5 24 13 SE 1015,8 0,0
23.06.2018 14:00:00 28,9 15,8 16 9 24 13 S 1015,9 -
23.06.2018 13:00:00 28,6 15,9 12 6 21 11 SSE 1016,1 0,0
23.06.2018 12:00:00 28,6 15,9 10 5 16 9 SSE 1016,1 0,0
23.06.2018 11:00:00 27,1 15,4 4 2 10 6 SW 1016,2 0,0
23.06.2018 10:00:00 24,9 14,3 4 2 7 4 WSW 1016,3 0,0
23.06.2018 09:00:00 21,7 13,4 1 0 4 2 SSW 1016,5 0,0
23.06.2018 08:00:00 19,5 11,8 3 2 10 5 W 1016,6 -
23.06.2018 07:00:00 19,7 11,4 4 2 8 4 W 1016,2 0,0
23.06.2018 06:00:00 20,8 11,4 4 2 8 4 WNW 1016,1 0,0
23.06.2018 05:00:00 20,5 11,4 5 3 10 6 W 1016,4 0,0
23.06.2018 04:00:00 21,4 11,4 8 4 11 6 W 1016,2 0,0
23.06.2018 03:00:00 22,9 11,9 5 3 9 5 NNW 1016,3 0,0
23.06.2018 02:00:00 23,2 12,2 4 2 10 5 NNW 1016,6 -
23.06.2018 01:00:00 23,4 12,4 4 2 7 4 NW 1017,0 0,0
23.06.2018 00:00:00 23,7 12,3 3 2 8 4 ENE 1017,2 0,0
22.06.2018 23:00:00 24,2 12,2 4 2 11 6 SE 1016,6 0,0
22.06.2018 22:00:00 25,1 12,0 9 5 13 7 S 1015,9 0,0
22.06.2018 21:00:00 27,3 12,5 8 5 16 8 SSE 1015,6 0,0
22.06.2018 20:00:00 28,4 12,7 8 5 16 9 SE 1014,8 -
22.06.2018 19:00:00 28,3 12,6 9 5 19 10 SE 1014,9 0,0
22.06.2018 18:00:00 29,0 13,3 11 6 23 12 SE 1015,2 0,0
22.06.2018 17:00:00 29,3 13,6 12 7 26 14 SSE 1015,4 0,0
22.06.2018 16:00:00 29,5 13,7 11 6 27 15 SSE 1015,6 0,0
22.06.2018 15:00:00 29,9 13,7 12 6 25 13 SSE 1016,0 0,0
22.06.2018 14:00:00 30,2 13,9 12 7 23 12 SE 1016,3 -
22.06.2018 13:00:00 30,4 14,5 13 7 20 11 S 1016,4 0,0
22.06.2018 12:00:00 29,8 14,7 7 4 14 8 SSE 1016,5 0,0
22.06.2018 11:00:00 27,3 13,9 4 2 11 6 SW 1016,7 0,0
22.06.2018 10:00:00 25,7 14,1 5 3 9 5 W 1016,7 0,0
22.06.2018 09:00:00 22,9 13,7 4 2 13 7 WNW 1016,5 0,0
22.06.2018 08:00:00 21,1 12,5 8 4 14 8 WNW 1016,7 -
22.06.2018 07:00:00 21,6 13,0 9 5 15 8 WNW 1016,6 0,0
22.06.2018 06:00:00 21,4 13,1 9 5 16 9 W 1016,7 0,0
22.06.2018 05:00:00 21,0 12,6 5 3 11 6 W 1016,9 0,0
22.06.2018 04:00:00 22,4 13,2 5 3 10 6 NNW 1017,4 0,0
22.06.2018 03:00:00 22,7 13,5 4 2 6 4 NNW 1017,8 0,0
22.06.2018 02:00:00 22,7 13,5 0 0 3 1 N 1018,0 -
22.06.2018 01:00:00 22,9 13,7 0 0 4 2 N 1018,1 0,0
22.06.2018 00:00:00 23,4 13,9 1 1 6 4 SE 1018,0 0,0
21.06.2018 23:00:00 24,1 13,1 3 1 8 4 ENE 1017,4 0,0
21.06.2018 22:00:00 25,2 13,1 4 2 14 8 SSE 1016,7 0,0
21.06.2018 21:00:00 26,6 14,0 7 4 14 7 S 1016,3 0,0
21.06.2018 20:00:00 27,2 14,6 7 4 17 9 SE 1016,2 -
21.06.2018 19:00:00 27,5 14,5 10 6 22 12 SSE 1016,4 0,0
21.06.2018 18:00:00 27,8 14,8 16 8 23 13 SE 1016,6 0,0
21.06.2018 17:00:00 28,4 17,0 12 6 26 14 SSE 1016,6 0,0
21.06.2018 16:00:00 27,4 17,0 15 8 29 15 SE 1016,7 0,0
21.06.2018 15:00:00 26,9 17,4 16 8 26 14 SE 1016,8 0,0
21.06.2018 14:00:00 27,0 17,2 16 9 24 13 SE 1017,1 -
21.06.2018 13:00:00 27,1 17,3 15 8 21 12 SE 1017,1 0,0
21.06.2018 12:00:00 29,0 16,6 13 7 20 11 S 1016,7 0,0
21.06.2018 11:00:00 27,5 14,8 10 6 16 9 WSW 1016,9 0,0
21.06.2018 10:00:00 24,5 15,7 6 3 9 5 WSW 1017,2 0,0
21.06.2018 09:00:00 22,4 16,2 3 1 8 4 W 1017,1 0,0
21.06.2018 08:00:00 20,4 16,0 3 2 6 4 WSW 1017,4 -
21.06.2018 07:00:00 20,0 15,9 3 1 10 5 W 1017,8 0,0
21.06.2018 06:00:00 20,1 16,0 6 3 10 5 WSW 1017,5 0,0
21.06.2018 05:00:00 20,4 16,2 5 3 14 8 W 1017,4 0,0
21.06.2018 04:00:00 21,2 16,8 2 1 8 5 N 1017,6 0,0
21.06.2018 03:00:00 21,0 16,6 6 4 10 5 W 1018,4 0,0
21.06.2018 02:00:00 21,3 16,9 4 2 7 4 W 1018,3 -
21.06.2018 01:00:00 21,6 17,2 3 2 8 5 ESE 1018,4 0,0
21.06.2018 00:00:00 21,7 16,9 4 2 7 4 SSE 1018,2 0,0
20.06.2018 23:00:00 22,1 16,6 3 1 10 5 SSE 1017,6 0,0
20.06.2018 22:00:00 22,7 16,2 6 3 14 8 S 1016,9 0,0
20.06.2018 21:00:00 23,8 15,8 9 5 16 9 SE 1016,7 0,0
20.06.2018 20:00:00 25,6 15,9 10 5 20 11 SSE 1016,3 -
20.06.2018 19:00:00 25,6 15,3 13 7 22 12 SE 1016,6 0,0
20.06.2018 18:00:00 26,5 15,9 12 6 23 12 SE 1016,8 0,0
20.06.2018 17:00:00 27,3 15,6 13 7 28 15 SE 1017,2 0,0
20.06.2018 16:00:00 27,1 14,5 14 8 24 13 SSE 1017,3 0,0
20.06.2018 15:00:00 27,7 14,3 14 8 24 13 SSE 1017,7 0,0
20.06.2018 14:00:00 27,8 14,8 14 8 22 12 S 1018,1 -
20.06.2018 13:00:00 27,3 13,9 12 7 24 13 SSE 1018,2 0,0
20.06.2018 12:00:00 27,9 14,1 14 7 21 12 S 1017,9 0,0
20.06.2018 11:00:00 26,0 14,4 6 4 12 7 SW 1018,2 0,0
20.06.2018 10:00:00 23,9 15,9 6 4 12 6 W 1018,7 0,0
20.06.2018 09:00:00 21,3 16,5 9 5 11 6 W 1019,0 0,0
20.06.2018 08:00:00 19,8 16,2 6 4 11 6 W 1019,2 -
20.06.2018 07:00:00 19,8 16,2 5 3 11 6 NNW 1019,1 0,0
20.06.2018 06:00:00 19,6 16,0 4 2 9 5 WNW 1019,2 0,0
20.06.2018 05:00:00 20,3 16,6 4 2 7 4 NNW 1019,2 0,0
20.06.2018 04:00:00 20,5 16,7 3 2 7 4 NNW 1019,7 0,0
20.06.2018 03:00:00 20,8 17,1 1 1 6 4 W 1020,0 0,0
20.06.2018 02:00:00 21,2 16,4 5 3 10 5 SSW 1020,3 -
20.06.2018 01:00:00 21,7 16,2 6 4 13 7 SE 1020,1 0,0
20.06.2018 00:00:00 21,9 16,4 9 5 16 9 SE 1020,1 0,0
19.06.2018 23:00:00 22,1 15,9 13 7 21 11 SE 1019,9 0,0
19.06.2018 22:00:00 22,4 15,5 13 7 22 12 SE 1019,3 0,0
19.06.2018 21:00:00 23,2 15,5 11 6 25 14 ESE 1019,5 0,0
19.06.2018 20:00:00 23,7 15,7 14 8 27 14 ESE 1019,5 -
19.06.2018 19:00:00 24,5 15,2 19 10 28 15 SE 1019,4 0,0
19.06.2018 18:00:00 25,3 14,7 18 10 31 17 ESE 1019,6 0,0
19.06.2018 17:00:00 26,5 14,6 16 9 29 16 SE 1019,7 0,0
19.06.2018 16:00:00 26,9 14,3 16 8 28 15 ESE 1020,2 0,0
19.06.2018 15:00:00 27,1 13,8 15 8 30 16 SE 1020,6 0,0
19.06.2018 14:00:00 27,4 13,4 16 9 27 15 SE 1020,8 -
19.06.2018 13:00:00 29,1 14,1 13 7 24 13 SSE 1020,6 0,0
19.06.2018 12:00:00 27,7 13,3 11 6 24 13 ESE 1020,5 0,0
19.06.2018 11:00:00 27,5 14,1 7 4 16 8 S 1020,3 0,0
19.06.2018 10:00:00 24,7 15,1 5 3 9 5 WSW 1020,6 0,0
19.06.2018 09:00:00 21,5 14,6 4 2 8 4 W 1020,6 0,0
19.06.2018 08:00:00 19,8 13,8 2 1 6 3 WNW 1020,5 -
19.06.2018 07:00:00 19,4 13,4 4 2 6 3 WSW 1020,5 0,0
19.06.2018 06:00:00 20,1 13,8 4 2 10 5 W 1020,1 0,0
19.06.2018 05:00:00 20,3 13,5 5 3 9 5 WSW 1020,0 0,0
19.06.2018 04:00:00 21,4 13,9 4 2 9 5 NW 1019,8 0,0
19.06.2018 03:00:00 21,8 13,9 3 1 6 4 NNW 1020,1 0,0
19.06.2018 02:00:00 22,0 14,1 3 2 7 4 WNW 1020,3 -
19.06.2018 01:00:00 22,2 13,9 4 2 7 4 SE 1020,4 0,0
19.06.2018 00:00:00 22,7 13,5 5 3 10 6 SSE 1020,3 0,0
18.06.2018 23:00:00 23,1 13,0 6 3 12 7 SSE 1019,4 0,0
18.06.2018 22:00:00 23,9 12,8 9 5 16 9 SSE 1018,6 0,0
18.06.2018 21:00:00 25,8 13,3 10 5 19 10 SSE 1018,2 0,0
18.06.2018 20:00:00 27,1 13,8 11 6 18 10 SSE 1017,8 -
18.06.2018 19:00:00 28,3 13,8 12 6 21 12 SSE 1017,7 0,0
18.06.2018 18:00:00 28,7 14,1 10 6 22 12 SE 1017,9 0,0
18.06.2018 17:00:00 28,8 13,1 13 7 26 14 SE 1018,3 0,0
18.06.2018 16:00:00 29,1 13,0 15 8 26 14 ESE 1018,2 0,0
18.06.2018 15:00:00 29,1 12,1 14 8 26 14 ESE 1018,4 0,0

tt = temperature
td = dewpoint
ff = wind speed
fx = gusts
dd = wind direction
ppp = reduced air pressure
rr = precipitation

Next stations